createdAt,value
2022-07-30T00:04:17.033Z,13.73
2022-07-30T00:09:19.806Z,10.43
2022-07-30T00:14:23.892Z,7.30
2022-07-30T00:19:26.567Z,4.57
2022-07-30T00:24:29.455Z,7.97
2022-07-30T00:29:33.758Z,7.35
2022-07-30T00:34:37.069Z,8.02
2022-07-30T00:39:41.027Z,5.65
2022-07-30T00:44:48.065Z,7.13
2022-07-30T00:49:53.471Z,7.45
2022-07-30T00:54:56.325Z,6.43
2022-07-30T01:00:00.371Z,7.40
2022-07-30T01:05:03.209Z,6.25
2022-07-30T01:10:06.903Z,8.68
2022-07-30T01:15:12.766Z,6.30
2022-07-30T01:20:20.140Z,6.30
2022-07-30T01:25:49.618Z,6.47
2022-07-30T01:30:54.994Z,8.82
2022-07-30T01:36:00.073Z,5.57
2022-07-30T01:41:05.436Z,7.63
2022-07-30T01:46:09.393Z,5.43
2022-07-30T01:51:14.559Z,8.18
2022-07-30T01:56:24.744Z,7.63
2022-07-30T02:01:28.023Z,5.65
2022-07-30T02:06:35.641Z,5.70
2022-07-30T02:12:04.357Z,8.73
2022-07-30T02:17:18.987Z,6.63
2022-07-30T02:22:24.705Z,8.75
2022-07-30T02:27:34.607Z,5.18
2022-07-30T02:32:44.692Z,6.20
2022-07-30T02:37:50.693Z,10.68
2022-07-30T02:42:55.525Z,7.22
2022-07-30T02:48:01.809Z,11.00
2022-07-30T02:53:09.162Z,7.18
2022-07-30T02:58:16.825Z,8.90
2022-07-30T03:03:20.931Z,10.10
2022-07-30T03:08:24.732Z,6.93
2022-07-30T03:13:28.860Z,8.45
2022-07-30T03:18:36.177Z,6.10
2022-07-30T03:23:40.774Z,5.70
2022-07-30T03:28:45.676Z,6.18
2022-07-30T03:33:49.751Z,7.68
2022-07-30T03:38:53.812Z,9.50
2022-07-30T03:43:58.284Z,7.00
2022-07-30T03:49:01.681Z,7.03
2022-07-30T03:54:08.449Z,6.22
2022-07-30T03:59:16.598Z,7.15
2022-07-30T04:04:19.966Z,7.80
2022-07-30T04:09:23.445Z,7.18
2022-07-30T04:14:27.656Z,8.65
2022-07-30T04:19:37.616Z,9.18
2022-07-30T04:24:42.083Z,6.47
2022-07-30T04:29:46.242Z,7.80
2022-07-30T04:34:49.457Z,7.95
2022-07-30T04:39:54.830Z,8.77
2022-07-30T04:44:59.035Z,8.00
2022-07-30T04:50:02.839Z,10.40
2022-07-30T04:55:09.386Z,7.43
2022-07-30T05:00:17.237Z,8.90
2022-07-30T05:05:21.447Z,7.18
2022-07-30T05:10:24.304Z,10.77
2022-07-30T05:15:35.764Z,7.70
2022-07-30T05:20:39.963Z,11.00
2022-07-30T05:25:43.693Z,9.05
2022-07-30T05:30:47.840Z,7.57
2022-07-30T05:35:51.236Z,8.45
2022-07-30T05:40:54.038Z,9.55
2022-07-30T05:45:58.107Z,8.50
2022-07-30T05:51:00.863Z,9.50
2022-07-30T05:56:03.585Z,10.40
2022-07-30T06:01:07.732Z,9.00
2022-07-30T06:06:10.565Z,7.35
2022-07-30T06:11:13.371Z,7.85
2022-07-30T06:16:17.596Z,5.53
2022-07-30T06:21:20.335Z,10.18
2022-07-30T06:26:23.055Z,9.80
2022-07-30T06:31:27.164Z,7.10
2022-07-30T06:36:30.496Z,10.07
2022-07-30T06:41:33.339Z,8.32
2022-07-30T06:46:37.559Z,7.13
2022-07-30T06:51:40.251Z,7.70
2022-07-30T06:56:42.948Z,6.78
2022-07-30T07:01:48.060Z,8.93
2022-07-30T07:06:50.763Z,11.60
2022-07-30T07:11:53.579Z,6.97
2022-07-30T07:16:57.641Z,7.18
2022-07-30T07:22:00.332Z,10.65
2022-07-30T07:27:03.443Z,8.95
2022-07-30T07:32:08.248Z,7.68
2022-07-30T07:37:11.040Z,7.38
2022-07-30T07:42:13.695Z,10.38
2022-07-30T07:47:17.716Z,9.75
2022-07-30T07:52:20.401Z,7.93
2022-07-30T07:57:23.073Z,6.30
2022-07-30T08:02:27.143Z,7.35
2022-07-30T08:07:30.703Z,14.15
2022-07-30T08:12:33.778Z,9.18
2022-07-30T08:17:42.452Z,7.10
2022-07-30T08:22:45.226Z,9.70
2022-07-30T08:27:47.908Z,8.43
2022-07-30T08:32:51.972Z,11.25
2022-07-30T08:37:54.843Z,8.27
2022-07-30T08:42:57.611Z,8.55
2022-07-30T08:48:03.796Z,13.23
2022-07-30T08:53:07.471Z,9.38
2022-07-30T08:58:18.843Z,9.25
2022-07-30T09:03:22.947Z,11.45
2022-07-30T09:08:25.664Z,9.43
2022-07-30T09:13:29.356Z,8.23
2022-07-30T09:18:35.617Z,8.02
2022-07-30T09:23:38.323Z,6.65
2022-07-30T09:28:41.003Z,9.82
2022-07-30T09:33:47.387Z,8.25
2022-07-30T09:38:52.557Z,7.13
2022-07-30T09:43:55.308Z,11.32
2022-07-30T09:49:15.161Z,9.13
2022-07-30T09:54:18.511Z,11.57
2022-07-30T09:59:35.097Z,8.00
2022-07-30T10:04:40.347Z,10.88
2022-07-30T10:09:45.447Z,8.63
2022-07-30T10:14:51.673Z,10.25
2022-07-30T10:19:56.211Z,7.05
2022-07-30T10:24:58.976Z,10.30
2022-07-30T10:30:04.059Z,9.90
2022-07-30T10:35:09.987Z,6.22
2022-07-30T10:40:23.334Z,7.60
2022-07-30T10:45:46.424Z,11.15
2022-07-30T10:50:53.725Z,10.23
2022-07-30T10:56:12.340Z,6.38
2022-07-30T11:01:18.520Z,8.25
2022-07-30T11:06:29.692Z,9.15
2022-07-30T11:12:04.944Z,11.00
2022-07-30T11:17:09.387Z,10.70
2022-07-30T11:22:28.236Z,12.23
2022-07-30T11:27:38.197Z,11.07
2022-07-30T11:32:40.948Z,11.32
2022-07-30T11:38:01.898Z,7.50
2022-07-30T11:43:24.565Z,9.23
2022-07-30T11:48:41.036Z,6.40
2022-07-30T11:53:46.034Z,10.80
2022-07-30T11:58:48.815Z,11.07
2022-07-30T12:03:51.561Z,6.15
2022-07-30T12:08:58.728Z,6.78
2022-07-30T12:14:02.553Z,12.05
2022-07-30T12:19:06.778Z,6.68
2022-07-30T12:24:14.748Z,6.18
2022-07-30T12:29:31.249Z,8.65
2022-07-30T12:34:40.591Z,7.53
2022-07-30T12:40:01.240Z,6.90
2022-07-30T12:45:54.483Z,10.02
2022-07-30T12:51:31.651Z,8.77
2022-07-30T12:56:47.511Z,10.50
2022-07-30T13:01:59.593Z,6.43
2022-07-30T13:07:39.450Z,6.25
2022-07-30T13:20:01.301Z,14.73
2022-07-30T13:25:48.951Z,6.18
2022-07-30T13:31:44.084Z,3.83
2022-07-30T13:43:08.312Z,7.13
2022-07-30T13:48:48.202Z,4.05
2022-07-30T13:54:32.663Z,2.72
2022-07-30T14:06:46.602Z,3.38
2022-07-30T14:17:32.385Z,2.67
2022-07-30T14:22:58.238Z,2.85
2022-07-30T14:28:21.690Z,3.65
2022-07-30T14:33:49.859Z,3.85
2022-07-30T14:39:06.743Z,6.55
2022-07-30T14:44:16.704Z,9.60
2022-07-30T14:55:37.578Z,3.33
2022-07-30T15:01:19.000Z,2.92
2022-07-30T15:07:07.685Z,2.40
2022-07-30T15:12:52.138Z,5.63
2022-07-30T15:18:29.104Z,2.30
2022-07-30T15:24:07.413Z,1.85
2022-07-30T15:29:38.111Z,2.05
2022-07-30T15:35:23.542Z,2.85
2022-07-30T15:40:37.894Z,3.53
2022-07-30T15:45:56.941Z,3.40
2022-07-30T15:51:12.430Z,2.17
2022-07-30T15:56:41.404Z,3.90
2022-07-30T16:01:56.169Z,3.30
2022-07-30T17:11:46.495Z,3.78
2022-07-30T17:23:31.558Z,2.92
2022-07-30T18:25:51.841Z,5.53
2022-07-30T18:30:54.987Z,10.13
2022-07-30T18:35:59.017Z,9.50
2022-07-30T18:41:02.860Z,9.35
2022-07-30T18:46:07.158Z,9.32
2022-07-30T18:51:14.057Z,8.30
2022-07-30T18:56:16.919Z,7.95
2022-07-30T19:01:19.681Z,7.30
2022-07-30T19:06:23.833Z,9.98
2022-07-30T19:11:26.529Z,13.15
2022-07-30T19:16:29.226Z,11.10
2022-07-30T19:21:33.220Z,8.10
2022-07-30T19:26:35.953Z,12.15
2022-07-30T19:31:41.508Z,10.50
2022-07-30T19:36:45.495Z,11.43
2022-07-30T19:41:48.176Z,9.35
2022-07-30T19:47:05.246Z,9.40
2022-07-30T19:52:22.846Z,9.27
2022-07-30T19:57:53.221Z,10.57
2022-07-30T20:02:49.565Z,8.70
2022-07-30T20:07:53.706Z,11.68
2022-07-30T20:13:01.032Z,9.07
2022-07-30T20:18:09.250Z,13.10
2022-07-30T20:23:14.417Z,10.55
2022-07-30T20:28:17.132Z,13.32
2022-07-30T20:33:26.788Z,10.75
2022-07-30T20:38:44.406Z,12.15
2022-07-30T20:43:51.849Z,12.77
2022-07-30T20:48:55.773Z,12.65
2022-07-30T20:53:59.850Z,15.07
2022-07-30T20:59:02.524Z,13.73
2022-07-30T21:04:05.829Z,10.43
2022-07-30T21:09:14.076Z,15.20
2022-07-30T21:14:17.767Z,11.88
2022-07-30T21:19:20.546Z,13.13
2022-07-30T21:24:27.633Z,11.77
2022-07-30T21:29:30.344Z,11.40
2022-07-30T21:34:35.999Z,11.07
2022-07-30T21:39:46.482Z,10.30
2022-07-30T21:44:49.667Z,12.90
2022-07-30T21:49:55.204Z,11.95
2022-07-30T21:54:59.301Z,12.13
2022-07-30T22:00:10.968Z,9.65
2022-07-30T22:05:14.115Z,11.93
2022-07-30T22:10:21.364Z,13.98
2022-07-30T22:15:24.625Z,10.02
2022-07-30T22:20:29.890Z,10.60
2022-07-30T22:25:41.526Z,11.73
2022-07-30T22:30:48.633Z,9.85
2022-07-30T22:35:51.390Z,12.88
2022-07-30T22:40:55.457Z,9.50
2022-07-30T22:45:59.874Z,9.20
2022-07-30T22:51:03.205Z,10.38
2022-07-30T22:56:14.166Z,12.35
2022-07-30T23:01:18.589Z,11.48
2022-07-30T23:06:21.332Z,13.77
2022-07-30T23:11:26.425Z,14.38
2022-07-30T23:16:40.744Z,12.60
2022-07-30T23:21:48.639Z,11.85
2022-07-30T23:26:52.908Z,12.90
2022-07-30T23:31:55.758Z,12.57
2022-07-30T23:36:58.445Z,11.40
2022-07-30T23:42:02.444Z,11.05
2022-07-30T23:47:05.464Z,13.25
2022-07-30T23:52:09.512Z,14.45
2022-07-30T23:57:13.519Z,12.57
